createdAt,value
2023-04-15T00:00:37.924Z,9.20
2023-04-15T00:03:05.632Z,11.43
2023-04-15T00:05:32.592Z,15.07
2023-04-15T00:07:59.039Z,20.83
2023-04-15T00:10:25.769Z,23.77
2023-04-15T00:12:52.474Z,23.75
2023-04-15T00:15:19.059Z,26.10
2023-04-15T00:17:46.014Z,20.70
2023-04-15T00:20:12.483Z,15.35
2023-04-15T00:22:38.825Z,19.13
2023-04-15T00:25:05.288Z,14.45
2023-04-15T00:27:31.712Z,14.68
2023-04-15T00:29:58.225Z,9.85
2023-04-15T00:32:24.693Z,7.10
2023-04-15T00:34:51.122Z,9.23
2023-04-15T00:37:17.513Z,8.43
2023-04-15T00:39:44.112Z,6.88
2023-04-15T00:42:10.859Z,4.97
2023-04-15T00:44:37.182Z,6.00
2023-04-15T00:47:04.154Z,7.60
2023-04-15T00:49:30.742Z,9.43
2023-04-15T00:51:57.158Z,11.32
2023-04-15T00:54:23.576Z,17.90
2023-04-15T00:56:49.900Z,16.92
2023-04-15T00:59:17.509Z,15.68
2023-04-15T01:01:44.434Z,16.33
2023-04-15T01:04:12.272Z,20.65
2023-04-15T01:06:38.711Z,9.40
2023-04-15T01:09:05.201Z,9.88
2023-04-15T01:11:33.540Z,30.27
2023-04-15T01:14:00.012Z,23.83
2023-04-15T01:16:27.520Z,28.67
2023-04-15T01:18:54.386Z,15.48
2023-04-15T01:21:20.791Z,19.35
2023-04-15T01:23:48.355Z,16.98
2023-04-15T01:26:14.900Z,15.00
2023-04-15T01:28:41.477Z,12.75
2023-04-15T01:31:14.948Z,7.95
2023-04-15T01:33:42.379Z,7.30
2023-04-15T01:36:10.002Z,10.73
2023-04-15T01:38:37.224Z,11.55
2023-04-15T01:41:08.093Z,8.95
2023-04-15T01:43:36.141Z,8.18
2023-04-15T01:48:28.900Z,8.82
2023-04-15T01:50:57.579Z,6.43
2023-04-15T01:53:24.643Z,5.25
2023-04-15T01:55:51.973Z,5.88
2023-04-15T01:58:19.039Z,3.30
2023-04-15T02:00:45.459Z,3.87
2023-04-15T02:03:11.905Z,5.20
2023-04-15T02:05:38.297Z,4.55
2023-04-15T02:08:04.702Z,8.32
2023-04-15T02:10:31.161Z,8.70
2023-04-15T02:12:57.540Z,7.68
2023-04-15T02:15:24.171Z,10.15
2023-04-15T02:17:52.593Z,8.90
2023-04-15T02:20:19.559Z,4.70
2023-04-15T02:22:45.891Z,4.85
2023-04-15T02:25:12.234Z,3.78
2023-04-15T02:27:38.594Z,2.70
2023-04-15T02:30:05.362Z,2.80
2023-04-15T02:32:31.776Z,3.03
2023-04-15T02:35:02.067Z,2.42
2023-04-15T02:37:30.480Z,5.07
2023-04-15T02:39:57.164Z,3.42
2023-04-15T02:42:23.491Z,2.72
2023-04-15T02:44:49.809Z,3.45
2023-04-15T02:47:16.399Z,2.58
2023-04-15T02:49:42.712Z,4.03
2023-04-15T02:52:09.992Z,2.00
2023-04-15T02:54:36.380Z,3.15
2023-04-15T02:57:02.819Z,2.35
2023-04-15T02:59:29.613Z,3.88
2023-04-15T03:02:00.739Z,2.10
2023-04-15T03:04:30.033Z,3.78
2023-04-15T03:06:56.789Z,3.95
2023-04-15T03:09:23.190Z,4.78
2023-04-15T03:11:50.641Z,5.18
2023-04-15T03:14:16.968Z,3.33
2023-04-15T03:16:43.286Z,5.07
2023-04-15T03:19:09.609Z,3.55
2023-04-15T03:21:35.919Z,3.65
2023-04-15T03:24:02.282Z,3.80
2023-04-15T03:26:29.605Z,4.68
2023-04-15T03:28:56.342Z,4.63
2023-04-15T03:31:22.813Z,5.07
2023-04-15T03:33:49.135Z,4.13
2023-04-15T03:36:15.932Z,6.50
2023-04-15T03:38:42.717Z,4.47
2023-04-15T03:41:09.624Z,5.63
2023-04-15T03:43:36.031Z,2.97
2023-04-15T03:46:02.522Z,3.88
2023-04-15T03:48:28.921Z,2.58
2023-04-15T03:50:55.418Z,5.70
2023-04-15T03:53:21.871Z,4.22
2023-04-15T03:55:48.201Z,3.92
2023-04-15T03:58:14.532Z,4.80
2023-04-15T04:00:41.526Z,2.25
2023-04-15T04:03:08.456Z,2.50
2023-04-15T04:05:37.134Z,3.77
2023-04-15T04:08:03.475Z,3.60
2023-04-15T04:10:29.846Z,3.55
2023-04-15T04:12:56.325Z,4.78
2023-04-15T04:15:22.718Z,5.35
2023-04-15T04:17:49.111Z,4.15
2023-04-15T04:20:15.612Z,5.32
2023-04-15T04:22:42.030Z,4.68
2023-04-15T04:25:08.885Z,3.83
2023-04-15T04:27:35.290Z,4.28
2023-04-15T04:30:02.093Z,3.05
2023-04-15T04:32:28.440Z,2.83
2023-04-15T04:34:54.779Z,2.95
2023-04-15T04:37:21.220Z,3.88
2023-04-15T04:39:47.542Z,3.38
2023-04-15T04:42:13.916Z,4.47
2023-04-15T04:44:40.304Z,3.63
2023-04-15T04:47:07.556Z,4.05
2023-04-15T04:49:33.967Z,4.57
2023-04-15T04:52:00.513Z,3.17
2023-04-15T04:54:27.716Z,3.50
2023-04-15T04:56:54.022Z,2.97
2023-04-15T04:59:20.393Z,4.90
2023-04-15T05:01:46.828Z,3.75
2023-04-15T05:04:13.279Z,3.80
2023-04-15T05:06:39.852Z,5.60
2023-04-15T05:09:06.620Z,5.20
2023-04-15T05:11:33.227Z,4.75
2023-04-15T05:14:02.463Z,5.43
2023-04-15T05:16:28.874Z,4.78
2023-04-15T05:18:55.286Z,3.08
2023-04-15T05:21:21.665Z,6.55
2023-04-15T05:23:48.034Z,3.97
2023-04-15T05:26:14.374Z,4.80
2023-04-15T05:28:40.806Z,4.20
2023-04-15T05:31:07.561Z,4.03
2023-04-15T05:33:34.006Z,4.78
2023-04-15T05:36:00.442Z,4.82
2023-04-15T05:38:27.096Z,6.60
2023-04-15T05:40:53.479Z,6.55
2023-04-15T05:43:19.883Z,8.65
2023-04-15T05:45:46.758Z,7.15
2023-04-15T05:48:13.108Z,5.63
2023-04-15T05:50:42.640Z,6.00
2023-04-15T05:53:09.210Z,5.55
2023-04-15T05:55:35.660Z,5.35
2023-04-15T05:58:02.174Z,7.57
2023-04-15T06:00:28.797Z,4.35
2023-04-15T06:02:56.265Z,8.57
2023-04-15T06:05:23.105Z,5.70
2023-04-15T06:07:50.252Z,4.10
2023-04-15T06:10:16.589Z,4.70
2023-04-15T06:12:42.988Z,5.90
2023-04-15T06:15:10.416Z,7.85
2023-04-15T06:17:37.319Z,6.05
2023-04-15T06:20:04.209Z,8.70
2023-04-15T06:22:30.755Z,6.80
2023-04-15T06:24:57.149Z,5.50
2023-04-15T06:27:23.693Z,8.32
2023-04-15T06:29:50.003Z,7.05
2023-04-15T06:32:16.315Z,7.50
2023-04-15T06:34:42.689Z,6.82
2023-04-15T06:37:11.098Z,5.13
2023-04-15T06:39:38.291Z,5.10
2023-04-15T06:42:04.948Z,6.00
2023-04-15T06:44:33.247Z,8.15
2023-04-15T06:47:00.179Z,5.65
2023-04-15T06:49:26.756Z,5.57
2023-04-15T06:51:53.072Z,6.57
2023-04-15T06:54:19.580Z,4.30
2023-04-15T06:56:46.238Z,4.65
2023-04-15T06:59:12.921Z,4.25
2023-04-15T07:01:39.262Z,5.28
2023-04-15T07:04:06.214Z,4.07
2023-04-15T07:06:32.837Z,3.77
2023-04-15T07:08:59.602Z,6.40
2023-04-15T07:11:26.329Z,6.18
2023-04-15T07:13:52.673Z,6.80
2023-04-15T07:16:19.262Z,5.57
2023-04-15T07:18:45.748Z,4.22
2023-04-15T07:21:12.593Z,3.83
2023-04-15T07:23:38.969Z,3.10
2023-04-15T07:26:05.638Z,4.13
2023-04-15T07:28:32.039Z,2.65
2023-04-15T07:30:58.472Z,5.07
2023-04-15T07:33:24.872Z,3.78
2023-04-15T07:35:51.242Z,4.30
2023-04-15T07:38:17.911Z,3.03
2023-04-15T07:40:44.280Z,3.08
2023-04-15T07:43:10.815Z,3.55
2023-04-15T07:45:37.187Z,6.20
2023-04-15T07:48:03.902Z,3.60
2023-04-15T07:50:30.301Z,5.68
2023-04-15T07:52:57.351Z,2.65
2023-04-15T07:55:23.845Z,2.17
2023-04-15T07:57:50.482Z,4.05
2023-04-15T08:00:16.992Z,4.63
2023-04-15T08:02:43.593Z,3.25
2023-04-15T08:05:10.589Z,3.78
2023-04-15T08:07:37.952Z,7.45
2023-04-15T08:10:04.482Z,5.55
2023-04-15T08:12:31.526Z,4.18
2023-04-15T08:14:57.876Z,6.93
2023-04-15T08:17:24.476Z,5.03
2023-04-15T08:19:50.818Z,7.95
2023-04-15T08:22:18.496Z,8.07
2023-04-15T08:24:45.841Z,6.32
2023-04-15T08:27:12.206Z,4.95
2023-04-15T08:29:38.544Z,6.50
2023-04-15T08:32:07.743Z,7.03
2023-04-15T08:34:34.835Z,3.72
2023-04-15T08:37:01.288Z,5.15
2023-04-15T08:39:28.271Z,5.20
2023-04-15T08:41:57.700Z,3.58
2023-04-15T08:44:24.619Z,5.20
2023-04-15T08:46:51.797Z,5.00
2023-04-15T08:49:19.204Z,6.38
2023-04-15T08:51:45.859Z,3.42
2023-04-15T08:54:12.645Z,5.27
2023-04-15T08:56:39.277Z,3.35
2023-04-15T08:59:06.346Z,4.10
2023-04-15T09:01:33.231Z,3.65
2023-04-15T09:03:59.768Z,2.35
2023-04-15T09:06:26.214Z,4.60
2023-04-15T09:08:53.017Z,2.85
2023-04-15T09:11:20.386Z,4.13
2023-04-15T09:13:46.846Z,2.58
2023-04-15T09:16:13.783Z,2.63
2023-04-15T09:18:40.248Z,3.05
2023-04-15T09:21:08.849Z,3.23
2023-04-15T09:23:35.817Z,5.00
2023-04-15T09:26:02.711Z,5.05
2023-04-15T09:28:29.483Z,3.03
2023-04-15T09:30:56.802Z,3.08
2023-04-15T09:33:23.326Z,3.85
2023-04-15T09:36:02.679Z,2.35
2023-04-15T09:38:29.110Z,2.50
2023-04-15T09:40:56.007Z,2.65
2023-04-15T09:43:22.952Z,3.08
2023-04-15T09:45:50.555Z,2.92
2023-04-15T09:48:21.469Z,2.35
2023-04-15T09:50:51.291Z,2.72
2023-04-15T09:53:21.510Z,5.80
2023-04-15T09:55:55.024Z,4.25
2023-04-15T09:58:22.515Z,4.25
2023-04-15T10:00:50.406Z,3.70
2023-04-15T10:03:19.936Z,2.47
2023-04-15T10:05:47.796Z,3.17
2023-04-15T10:08:15.287Z,3.38
2023-04-15T10:10:42.949Z,2.70
2023-04-15T10:13:09.533Z,1.92
2023-04-15T10:15:36.237Z,3.60
2023-04-15T10:18:03.721Z,2.25
2023-04-15T10:20:30.413Z,3.83
2023-04-15T10:22:57.530Z,3.90
2023-04-15T10:25:25.016Z,4.78
2023-04-15T10:27:52.836Z,4.20
2023-04-15T10:30:19.458Z,1.63
2023-04-15T10:32:46.040Z,3.65
2023-04-15T10:35:12.696Z,3.40
2023-04-15T10:37:39.390Z,3.25
2023-04-15T10:40:28.856Z,3.28
2023-04-15T10:42:56.489Z,7.72
2023-04-15T10:45:25.168Z,3.83
2023-04-15T10:47:52.315Z,5.28
2023-04-15T10:50:18.922Z,3.42
2023-04-15T10:52:45.252Z,3.53
2023-04-15T10:55:14.592Z,3.60
2023-04-15T10:57:41.444Z,2.65
2023-04-15T11:00:17.806Z,2.45
2023-04-15T11:02:44.387Z,3.17
2023-04-15T11:05:11.476Z,3.63
2023-04-15T11:07:38.615Z,2.70
2023-04-15T11:10:25.540Z,2.40
2023-04-15T11:15:37.757Z,3.47
2023-04-15T11:18:22.989Z,3.43
2023-04-15T11:20:50.577Z,2.90
2023-04-15T11:23:20.343Z,5.75
2023-04-15T11:25:46.679Z,46.13
2023-04-15T11:28:13.483Z,7.73
2023-04-15T11:30:40.376Z,16.77
2023-04-15T11:33:08.547Z,3.05
2023-04-15T11:35:35.207Z,2.75
2023-04-15T11:38:05.301Z,3.47
2023-04-15T11:40:33.447Z,3.92
2023-04-15T11:43:21.380Z,2.33
2023-04-15T11:45:52.656Z,3.38
2023-04-15T11:48:19.946Z,2.17
2023-04-15T11:50:46.478Z,2.33
2023-04-15T11:53:13.736Z,3.05
2023-04-15T11:55:44.689Z,1.85
2023-04-15T11:58:14.446Z,3.90
2023-04-15T12:00:45.787Z,2.90
2023-04-15T12:03:17.838Z,2.47
2023-04-15T12:06:03.267Z,2.20
2023-04-15T12:08:49.017Z,1.80
2023-04-15T12:13:48.935Z,1.67
2023-04-15T12:16:19.443Z,1.95
2023-04-15T12:18:47.125Z,1.33
2023-04-15T12:21:13.773Z,1.95
2023-04-15T12:23:47.719Z,3.17
2023-04-15T12:26:14.080Z,1.35
2023-04-15T12:31:07.353Z,1.20
2023-04-15T12:33:34.043Z,1.13
2023-04-15T12:36:00.400Z,1.80
2023-04-15T12:38:26.740Z,1.85
2023-04-15T12:40:54.146Z,1.50
2023-04-15T12:43:20.659Z,2.78
2023-04-15T12:45:47.007Z,1.42
2023-04-15T12:50:39.604Z,1.00
2023-04-15T12:53:05.964Z,1.83
2023-04-15T12:55:32.288Z,1.65
2023-04-15T12:57:58.608Z,1.33
2023-04-15T13:00:24.969Z,2.53
2023-04-15T13:02:51.397Z,1.40
2023-04-15T13:07:44.119Z,2.92
2023-04-15T13:10:10.837Z,2.17
2023-04-15T13:12:37.368Z,1.30
2023-04-15T13:17:32.056Z,1.23
2023-04-15T13:22:24.696Z,1.20
2023-04-15T13:27:18.401Z,0.70
2023-04-15T13:29:44.734Z,1.38
2023-04-15T13:32:11.109Z,1.92
2023-04-15T13:34:37.454Z,1.85
2023-04-15T13:37:07.910Z,1.58
2023-04-15T13:39:34.320Z,1.92
2023-04-15T13:42:00.920Z,1.35
2023-04-15T13:44:27.257Z,1.45
2023-04-15T13:46:53.638Z,2.15
2023-04-15T13:49:19.985Z,1.65
2023-04-15T13:51:46.580Z,1.83
2023-04-15T13:54:12.907Z,2.22
2023-04-15T13:56:39.327Z,2.00
2023-04-15T13:59:06.672Z,1.65
2023-04-15T14:01:33.070Z,1.38
2023-04-15T14:06:27.258Z,1.15
2023-04-15T14:08:53.699Z,2.05
2023-04-15T14:11:20.037Z,1.48
2023-04-15T14:13:46.441Z,0.95
2023-04-15T14:16:12.844Z,1.55
2023-04-15T14:18:39.922Z,1.42
2023-04-15T14:21:07.211Z,1.13
2023-04-15T14:23:33.560Z,1.10
2023-04-15T14:28:26.155Z,1.83
2023-04-15T14:30:52.619Z,1.13
2023-04-15T14:35:45.402Z,1.42
2023-04-15T14:40:38.157Z,0.60
2023-04-15T14:45:30.962Z,1.65
2023-04-15T14:47:57.376Z,1.17
2023-04-15T14:50:23.836Z,1.52
2023-04-15T14:52:50.191Z,0.95
2023-04-15T14:55:16.845Z,1.08
2023-04-15T14:57:43.268Z,0.60
2023-04-15T15:00:10.535Z,1.92
2023-04-15T15:02:40.240Z,0.88
2023-04-15T15:05:07.498Z,0.70
2023-04-15T15:07:33.934Z,0.77
2023-04-15T15:10:00.302Z,1.13
2023-04-15T15:12:26.694Z,1.98
2023-04-15T15:14:53.038Z,1.08
2023-04-15T15:17:19.444Z,1.35
2023-04-15T15:19:45.953Z,1.02
2023-04-15T15:22:12.390Z,1.17
2023-04-15T15:24:38.735Z,1.08
2023-04-15T15:27:05.414Z,1.55
2023-04-15T15:29:31.772Z,0.90
2023-04-15T15:31:58.110Z,1.10
2023-04-15T15:34:24.485Z,1.65
2023-04-15T15:36:50.940Z,1.33
2023-04-15T15:39:17.296Z,0.70
2023-04-15T15:41:43.640Z,2.50
2023-04-15T15:44:10.019Z,1.15
2023-04-15T15:46:36.391Z,1.73
2023-04-15T15:49:03.700Z,1.30
2023-04-15T15:51:30.887Z,1.85
2023-04-15T15:53:57.354Z,1.20
2023-04-15T15:56:23.736Z,1.25
2023-04-15T15:58:50.058Z,0.95
2023-04-15T16:01:16.757Z,0.90
2023-04-15T16:03:43.226Z,1.67
2023-04-15T16:06:09.769Z,1.58
2023-04-15T16:08:36.120Z,2.07
2023-04-15T16:11:02.512Z,1.43
2023-04-15T16:13:28.914Z,2.23
2023-04-15T16:15:55.471Z,1.43
2023-04-15T16:18:21.827Z,1.67
2023-04-15T16:20:48.487Z,1.00
2023-04-15T16:23:15.935Z,2.20
2023-04-15T16:28:22.652Z,1.45
2023-04-15T16:30:49.388Z,3.22
2023-04-15T16:33:15.924Z,2.72
2023-04-15T16:35:42.248Z,2.30
2023-04-15T16:38:08.584Z,3.70
2023-04-15T16:40:35.046Z,1.15
2023-04-15T16:43:01.431Z,1.88
2023-04-15T16:45:27.840Z,2.13
2023-04-15T16:47:54.386Z,3.25
2023-04-15T16:50:20.977Z,2.65
2023-04-15T16:52:47.358Z,1.27
2023-04-15T16:55:13.945Z,1.50
2023-04-15T16:58:00.893Z,2.17
2023-04-15T17:00:27.145Z,1.70
2023-04-15T17:02:54.815Z,2.42
2023-04-15T17:05:21.573Z,2.40
2023-04-15T17:07:47.966Z,2.83
2023-04-15T17:10:14.378Z,1.90
2023-04-15T17:12:40.700Z,3.30
2023-04-15T17:15:07.463Z,1.88
2023-04-15T17:17:33.867Z,1.67
2023-04-15T17:20:00.298Z,2.20
2023-04-15T17:22:27.424Z,2.90
2023-04-15T17:24:53.796Z,2.53
2023-04-15T17:27:20.782Z,1.95
2023-04-15T17:29:47.148Z,1.80
2023-04-15T17:32:13.682Z,3.08
2023-04-15T17:34:49.696Z,2.28
2023-04-15T17:37:17.935Z,2.83
2023-04-15T17:39:44.334Z,3.23
2023-04-15T17:42:11.195Z,2.90
2023-04-15T17:44:37.555Z,6.35
2023-04-15T17:47:04.011Z,2.83
2023-04-15T17:49:31.115Z,1.70
2023-04-15T17:51:57.733Z,1.73
2023-04-15T17:54:24.044Z,3.15
2023-04-15T17:56:50.658Z,3.78
2023-04-15T17:59:17.164Z,3.53
2023-04-15T18:01:43.602Z,3.22
2023-04-15T18:04:10.382Z,3.13
2023-04-15T18:06:37.039Z,3.50
2023-04-15T18:09:03.980Z,3.08
2023-04-15T18:11:33.202Z,1.98
2023-04-15T18:13:59.749Z,1.42
2023-04-15T18:16:26.599Z,3.58
2023-04-15T18:18:53.825Z,3.15
2023-04-15T18:21:20.325Z,2.50
2023-04-15T18:23:46.662Z,3.30
2023-04-15T18:26:13.141Z,2.50
2023-04-15T18:28:39.879Z,2.58
2023-04-15T18:31:06.507Z,3.20
2023-04-15T18:33:32.884Z,3.13
2023-04-15T18:35:59.489Z,7.53
2023-04-15T18:38:26.047Z,7.80
2023-04-15T18:40:52.369Z,5.13
2023-04-15T18:43:18.811Z,5.63
2023-04-15T18:45:45.292Z,5.72
2023-04-15T18:48:12.358Z,7.13
2023-04-15T18:50:38.738Z,10.60
2023-04-15T18:53:05.139Z,9.38
2023-04-15T18:55:31.579Z,13.23
2023-04-15T18:58:08.468Z,10.15
2023-04-15T19:03:05.699Z,19.05
2023-04-15T19:05:32.063Z,23.23
2023-04-15T19:07:59.709Z,16.77
2023-04-15T19:10:28.017Z,28.33
2023-04-15T19:12:54.955Z,23.58
2023-04-15T19:15:21.362Z,18.43
2023-04-15T19:17:47.827Z,13.55
2023-04-15T19:20:14.227Z,10.18
2023-04-15T19:22:41.620Z,5.53
2023-04-15T19:25:08.161Z,5.32
2023-04-15T19:27:34.528Z,5.68
2023-04-15T19:30:01.956Z,4.97
2023-04-15T19:32:28.491Z,4.63
2023-04-15T19:34:54.943Z,5.38
2023-04-15T19:37:21.290Z,5.18
2023-04-15T19:39:47.728Z,6.68
2023-04-15T19:42:14.261Z,6.00
2023-04-15T19:44:42.825Z,4.18
2023-04-15T19:47:09.825Z,4.75
2023-04-15T19:49:36.164Z,4.63
2023-04-15T19:52:02.733Z,5.55
2023-04-15T19:54:30.748Z,3.67
2023-04-15T19:56:57.694Z,5.35
2023-04-15T19:59:24.292Z,4.50
2023-04-15T20:01:50.730Z,3.35
2023-04-15T20:04:17.179Z,5.15
2023-04-15T20:06:43.562Z,5.72
2023-04-15T20:09:11.267Z,4.68
2023-04-15T20:12:46.284Z,4.38
2023-04-15T20:14:25.131Z,5.18
2023-04-15T20:16:51.474Z,5.40
2023-04-15T20:19:17.794Z,6.07
2023-04-15T20:21:44.359Z,4.43
2023-04-15T20:24:10.930Z,6.43
2023-04-15T20:26:37.282Z,6.38
2023-04-15T20:29:03.977Z,4.95
2023-04-15T20:31:30.589Z,5.22
2023-04-15T20:33:57.104Z,7.82
2023-04-15T20:36:23.497Z,5.18
2023-04-15T20:38:49.821Z,5.15
2023-04-15T20:41:16.153Z,6.55
2023-04-15T20:43:42.515Z,7.63
2023-04-15T20:46:17.832Z,8.35
2023-04-15T20:48:47.112Z,7.07
2023-04-15T20:51:13.487Z,5.82
2023-04-15T20:53:41.783Z,6.93
2023-04-15T20:56:08.210Z,6.82
2023-04-15T20:58:34.550Z,7.13
2023-04-15T21:01:02.141Z,12.10
2023-04-15T21:03:28.844Z,15.73
2023-04-15T21:05:55.724Z,14.73
2023-04-15T21:08:29.088Z,8.23
2023-04-15T21:10:56.243Z,7.85
2023-04-15T21:13:22.908Z,7.93
2023-04-15T21:15:53.200Z,9.10
2023-04-15T21:18:20.761Z,12.77
2023-04-15T21:20:47.312Z,14.50
2023-04-15T21:23:13.674Z,11.10
2023-04-15T21:25:40.185Z,11.38
2023-04-15T21:28:07.116Z,12.98
2023-04-15T21:30:33.516Z,13.40
2023-04-15T21:32:59.873Z,8.68
2023-04-15T21:35:26.332Z,7.15
2023-04-15T21:37:52.689Z,8.10
2023-04-15T21:40:19.424Z,10.30
2023-04-15T21:42:45.774Z,9.82
2023-04-15T21:45:12.170Z,11.82
2023-04-15T21:48:01.233Z,12.02
2023-04-15T21:50:25.026Z,16.45
2023-04-15T21:52:51.410Z,15.23
2023-04-15T21:55:18.101Z,27.40
2023-04-15T21:57:44.499Z,19.85
2023-04-15T22:00:11.563Z,15.45
2023-04-15T22:02:38.400Z,12.00
2023-04-15T22:05:05.129Z,10.10
2023-04-15T22:07:31.440Z,8.95
2023-04-15T22:09:57.797Z,10.55
2023-04-15T22:12:24.152Z,9.27
2023-04-15T22:14:50.485Z,9.43
2023-04-15T22:17:16.832Z,9.43
2023-04-15T22:19:43.307Z,11.00
2023-04-15T22:22:09.639Z,9.40
2023-04-15T22:24:40.262Z,11.98
2023-04-15T22:27:07.122Z,13.27
2023-04-15T22:29:33.615Z,11.80
2023-04-15T22:31:59.954Z,9.52
2023-04-15T22:34:26.355Z,11.68
2023-04-15T22:36:52.721Z,11.95
2023-04-15T22:39:19.547Z,12.30
2023-04-15T22:41:46.562Z,9.88
2023-04-15T22:44:12.912Z,14.10
2023-04-15T22:46:39.654Z,15.57
2023-04-15T22:49:07.367Z,10.15
2023-04-15T22:51:33.941Z,13.10
2023-04-15T22:54:00.501Z,14.35
2023-04-15T22:56:26.901Z,11.15
2023-04-15T22:58:53.281Z,11.43
2023-04-15T23:01:20.788Z,11.55
2023-04-15T23:03:56.501Z,11.07
2023-04-15T23:06:31.731Z,12.30
2023-04-15T23:08:58.067Z,10.50
2023-04-15T23:11:24.483Z,11.25
2023-04-15T23:13:50.862Z,12.88
2023-04-15T23:16:17.327Z,11.88
2023-04-15T23:18:43.767Z,10.13
2023-04-15T23:21:10.365Z,12.70
2023-04-15T23:23:36.807Z,11.95
2023-04-15T23:26:04.228Z,11.55
2023-04-15T23:28:30.824Z,12.80
2023-04-15T23:30:59.134Z,14.90
2023-04-15T23:33:26.757Z,12.18
2023-04-15T23:35:53.219Z,12.88
2023-04-15T23:38:19.582Z,14.20
2023-04-15T23:40:46.005Z,14.30
2023-04-15T23:43:12.434Z,15.15
2023-04-15T23:45:40.140Z,14.57
2023-04-15T23:48:06.729Z,12.25
2023-04-15T23:50:33.085Z,12.25
2023-04-15T23:52:59.469Z,11.55
2023-04-15T23:55:25.951Z,12.15
2023-04-15T23:57:53.797Z,17.10
